W2DEN Weather Reports


Display with metric or nautical units.
time (UTC)temp
F
wind
direction
speed
MPH
gust
MPH
rain 1hr
in
rain 24hr
in
rain mn
in
humidity
%
barometer
mb
20210624151518 87 105 1.0 4.0 0.00 0.00 0.00 65 1013.6
20210624150523 87 154 1.0 3.0 0.00 0.00 0.00 62 1013.7
20210624145523 87 83 0.0 5.0 0.00 0.00 0.00 62 1013.5
20210624144518 87 137 0.0 4.0 0.00 0.00 0.00 66 1013.6
20210624143522 86 113 1.0 3.0 0.00 0.00 0.00 66 1013.5
20210624142522 85 128 0.0 5.0 0.00 0.00 0.00 68 1013.5
20210624141517 85 134 1.0 4.0 0.00 0.00 0.00 68 1013.5
20210624140518 84 68 2.0 7.0 0.00 0.00 0.00 70 1013.4
20210624135522 83 96 2.0 5.0 0.00 0.00 0.00 71 1013.4
20210624134523 83 136 0.0 5.0 0.00 0.00 0.00 73 1013.3
20210624133523 82 77 2.0 5.0 0.00 0.00 0.00 74 1013.3
20210624132522 82 107 1.0 4.0 0.00 0.00 0.00 77 1013.3
20210624131523 80 130 2.0 4.0 0.00 0.00 0.00 79 1013.4
20210624130517 80 104 2.0 3.0 0.00 0.00 0.00 81 1013.3
20210624125518 79 68 2.0 4.0 0.00 0.00 0.00 83 1013.3
20210624124521 78 67 0.0 3.0 0.00 0.00 0.00 87 1013.3
20210624123518 77 65 2.0 4.0 0.00 0.00 0.00 87 1013.3
20210624122522 76 64 2.0 4.0 0.00 0.00 0.00 90 1013.3
20210624121520 75 67 0.0 3.0 0.00 0.00 0.00 93 1013.2
20210624120517 74 67 2.0 4.0 0.00 0.00 0.00 93 1013.2
20210624115517 74 70 1.0 3.0 0.00 0.00 0.00 93 1013.0
20210624114523 74 71 1.0 4.0 0.00 0.00 0.00 94 1012.9
20210624113523 74 101 2.0 3.0 0.00 0.00 0.00 94 1012.8
20210624112522 73 0.0 2.0 0.00 0.00 0.00 94 1012.8
20210624111522 73 103 0.0 3.0 0.00 0.00 0.00 94 1012.7
20210624110522 73 103 0.0 2.0 0.00 0.00 0.00 95 1012.6
20210624105522 73 105 0.0 2.0 0.00 0.00 0.00 94 1012.3
20210624104517 73 0.0 1.0 0.00 0.00 0.00 94 1012.2
20210624103522 73 109 0.0 3.0 0.00 0.00 0.00 93 1012.1
20210624102522 74 106 0.0 2.0 0.00 0.00 0.00 93 1011.9
20210624101522 74 0.0 0.0 0.00 0.00 0.00 93 1011.8
20210624100522 74 0.0 0.0 0.00 0.00 0.00 92 1011.6
20210624095523 74 0.0 0.0 0.00 0.00 0.00 92 1011.7
20210624094518 74 0.0 0.0 0.00 0.00 0.00 92 1011.8
20210624093517 74 0.0 0.0 0.00 0.00 0.00 91 1011.6
20210624092522 74 98 0.0 1.0 0.00 0.00 0.00 91 1011.5
20210624091523 74 0.0 1.0 0.00 0.00 0.00 92 1011.3
20210624090522 74 98 1.0 3.0 0.00 0.00 0.00 92 1011.5
20210624085523 74 0.0 0.0 0.00 0.00 0.00 92 1011.5
20210624084523 74 106 1.0 3.0 0.00 0.00 0.00 92 1011.3
20210624083516 74 96 2.0 5.0 0.00 0.00 0.00 92 1011.3
20210624082517 74 89 1.0 3.0 0.00 0.00 0.00 92 1011.5
20210624081517 74 0.0 0.0 0.00 0.00 0.00 91 1011.6
20210624080522 74 59 0.0 1.0 0.00 0.00 0.00 91 1011.9
20210624075522 74 0.0 1.0 0.00 0.00 0.00 91 1011.9
20210624074546 74 59 0.0 2.0 0.00 0.00 0.00 90 1011.9
20210624073523 74 0.0 0.0 0.00 0.00 0.00 90 1011.9
20210624072517 74 58 0.0 2.0 0.00 0.00 0.00 89 1011.7
20210624071523 74 53 0.0 1.0 0.00 0.00 0.00 88 1011.8
20210624070522 75 45 1.0 3.0 0.00 0.00 0.00 87 1011.7
20210624065522 75 38 0.0 1.0 0.00 0.00 0.00 87 1011.6
20210624064522 75 38 0.0 1.0 0.00 0.00 0.00 86 1011.4
20210624063521 75 33 0.0 2.0 0.00 0.00 0.00 86 1011.5
20210624062522 75 30 0.0 2.0 0.00 0.00 0.00 86 1011.8
20210624061518 75 0.0 1.0 0.00 0.00 0.00 85 1011.7
20210624060523 74 29 0.0 2.0 0.00 0.00 0.00 84 1011.7
20210624055522 74 0.0 0.0 0.00 0.00 0.00 84 1011.7
20210624054523 74 0.0 0.0 0.00 0.00 0.00 83 1011.8
20210624053523 75 30 0.0 2.0 0.00 0.00 0.00 81 1012.1
20210624052522 75 0.0 1.0 0.00 0.00 0.00 81 1012.4
20210624051517 76 28 2.0 4.0 0.00 0.00 0.00 80 1012.7
20210624050516 76 29 0.0 3.0 0.00 0.00 0.00 79 1012.9
20210624045522 76 28 1.0 3.0 0.00 0.00 0.00 77 1013.0
20210624044522 77 28 0.0 3.0 0.00 0.00 0.00 78 1013.1
20210624043522 77 28 1.0 3.0 0.00 0.00 0.00 77 1013.3
20210624042521 77 30 1.0 3.0 0.00 0.00 0.00 79 1013.6
20210624041522 77 30 2.0 4.0 0.00 0.00 0.00 79 1013.6
20210624040517 78 26 1.0 3.0 0.00 0.00 0.00 83 1013.8
20210624035518 78 22 3.0 8.0 0.00 0.00 0.00 84 1013.8
20210624034518 78 40 1.0 4.0 0.00 0.00 0.00 85 1013.5
20210624033523 78 46 1.0 4.0 0.00 0.00 0.00 85 1013.0
20210624032522 78 63 1.0 3.0 0.00 0.00 0.00 85 1012.5
20210624031523 78 62 0.0 1.0 0.00 0.00 0.00 84 1012.8
20210624030522 78 46 1.0 4.0 0.00 0.00 0.00 84 1013.5
20210624025523 78 8 6.0 12.0 0.00 0.00 0.00 84 1014.2
20210624024523 79 66 1.0 3.0 0.00 0.00 0.00 83 1013.8
20210624023517 78 74 0.0 3.0 0.00 0.00 0.00 83 1013.6
20210624022523 78 0.0 0.0 0.00 0.00 0.00 83 1013.4
20210624021523 78 0.0 0.0 0.00 0.00 0.00 83 1013.3
20210624020518 78 77 0.0 3.0 0.00 0.00 0.00 84 1013.5
20210624015523 79 84 1.0 2.0 0.00 0.00 0.00 83 1013.5
20210624014523 79 95 0.0 2.0 0.00 0.00 0.00 83 1013.4
20210624013518 80 125 1.0 3.0 0.00 0.00 0.00 82 1013.1
20210624012518 80 126 0.0 1.0 0.00 0.00 0.00 81 1012.9
20210624011522 80 123 0.0 2.0 0.00 0.00 0.00 80 1012.8
20210624010523 80 138 1.0 3.0 0.00 0.00 0.00 81 1012.9
20210624005523 81 138 1.0 2.0 0.00 0.00 0.00 82 1013.0
20210624004523 81 132 1.0 5.0 0.00 0.00 0.00 80 1012.9
20210624003523 82 109 2.0 4.0 0.00 0.00 0.00 79 1012.9
20210624002518 83 111 3.0 5.0 0.00 0.00 0.00 78 1013.0
20210624001518 83 120 1.0 3.0 0.00 0.00 0.00 76 1013.1
20210624000523 84 119 0.0 2.0 0.00 0.00 0.00 77 1013.3
20210623235522 84 117 3.0 5.0 0.00 0.00 0.00 75 1013.2
20210623234523 85 136 5.0 7.0 0.00 0.00 0.00 74 1013.2
20210623233521 86 122 2.0 5.0 0.00 0.00 0.00 73 1013.2
20210623232522 88 119 2.0 5.0 0.00 0.00 0.00 68 1013.3
20210623231517 89 50 1.0 4.0 0.00 0.00 0.00 64 1013.2
20210623230522 90 288 1.0 3.0 0.00 0.00 0.00 61 1013.1
20210623225523 90 223 1.0 2.0 0.00 0.00 0.00 62 1013.0
20210623224522 90 261 1.0 3.0 0.00 0.00 0.00 62 1012.7
20210623223522 90 248 2.0 3.0 0.00 0.00 0.00 61 1012.6
20210623222522 90 219 0.0 2.0 0.00 0.00 0.00 64 1012.6
20210623221523 91 277 1.0 3.0 0.00 0.00 0.00 62 1012.7
20210623220518 91 259 2.0 6.0 0.00 0.00 0.00 63 1012.7
20210623215523 91 323 2.0 7.0 0.00 0.00 0.00 63 1012.5
20210623214523 91 267 2.0 5.0 0.00 0.00 0.00 61 1012.3
20210623213522 92 238 2.0 5.0 0.00 0.00 0.00 61 1012.2
20210623212517 92 274 1.0 3.0 0.00 0.00 0.00 63 1012.1
20210623211523 91 229 1.0 4.0 0.00 0.00 0.00 63 1012.3
20210623210523 91 258 3.0 6.0 0.00 0.00 0.00 62 1012.3
20210623205518 91 251 2.0 5.0 0.00 0.00 0.00 63 1012.1
20210623204522 90 228 2.0 6.0 0.00 0.00 0.00 63 1012.1
20210623203523 91 300 5.0 11.0 0.00 0.00 0.00 63 1012.1
20210623202522 91 283 3.0 10.0 0.00 0.00 0.00 63 1012.0
20210623201522 91 244 2.0 5.0 0.00 0.00 0.00 64 1011.9
20210623200523 91 271 2.0 7.0 0.00 0.00 0.00 63 1011.8
20210623195518 91 235 4.0 8.0 0.00 0.00 0.00 62 1012.1
20210623194517 91 300 3.0 6.0 0.00 0.00 0.00 63 1012.0
20210623193517 91 267 4.0 9.0 0.00 0.00 0.00 62 1012.1
20210623192523 91 271 3.0 9.0 0.00 0.00 0.00 63 1012.1
20210623191522 91 267 5.0 10.0 0.00 0.00 0.00 62 1012.3
20210623190521 91 301 1.0 7.0 0.00 0.00 0.00 62 1012.2
20210623185521 91 272 2.0 5.0 0.00 0.00 0.00 62 1012.1
20210623184517 91 276 3.0 7.0 0.00 0.00 0.00 61 1012.2
20210623183517 91 289 1.0 4.0 0.00 0.00 0.00 62 1012.4
20210623182522 91 262 3.0 7.0 0.00 0.00 0.00 63 1012.2
20210623181523 90 314 3.0 7.0 0.00 0.00 0.00 63 1012.1
20210623180523 90 257 2.0 6.0 0.00 0.00 0.00 63 1012.2
20210623175522 90 273 3.0 5.0 0.00 0.00 0.00 64 1012.0
20210623174517 90 294 2.0 6.0 0.00 0.00 0.00 62 1012.1
20210623173517 90 283 4.0 10.0 0.00 0.00 0.00 63 1012.3
20210623172522 90 285 1.0 4.0 0.00 0.00 0.00 65 1012.4
20210623171523 90 306 1.0 7.0 0.00 0.00 0.00 68 1012.7
20210623170522 89 241 2.0 5.0 0.00 0.00 0.00 67 1013.1
20210623165523 89 245 1.0 6.0 0.00 0.00 0.00 69 1013.4
20210623164518 89 309 2.0 5.0 0.00 0.00 0.00 70 1013.4
20210623163518 88 283 1.0 3.0 0.00 0.00 0.00 72 1013.6
20210623162518 88 259 2.0 5.0 0.00 0.00 0.00 71 1013.6
20210623161522 90 285 1.0 6.0 0.00 0.00 0.00 70 1013.7
20210623160523 90 285 0.0 5.0 0.00 0.00 0.00 65 1013.8
20210623155523 91 250 1.0 4.0 0.00 0.00 0.00 58 1013.8
20210623154523 91 270 3.0 7.0 0.00 0.00 0.00 57 1013.8
20210623153523 91 254 2.0 5.0 0.00 0.00 0.00 55 1013.7
20210623152518 92 306 2.0 5.0 0.00 0.00 0.00 56 1013.7